PWSweather.com
Personal Weather Stations
Station Observations
KNCCHINA3
Red Tractor Trail, China Grove, NC 28023

Red Tractor TrailChina Grove, NC 28023

Lat: 35.59751, Lon: -80.60201

Elevation: 800

Station Type: Oregon Scientific WMR 968

http://www.joesweathergarage.com

Latest ConditionsUpdated 12:22:03 PM EST Friday, Dec 9, 2016
Currently Today's Max Today's Min Today's Average
Temperature 88.9°F31.6°C 90.0°F32.2°C 28.4°F-2.0°C 48.2°F9.0°C
Dew Point 74.8°F23.8°C 78.5°F25.8°C 13.4°F-10.3°C 33.3°F0.7°C
Winds 2.2 mph W3.5 kmh W 13.3 mph NNE21.4 kmh NNE - 4.7 mph 7.6 kmh
Wind Gusts 3.2 mph5.1 kmh 20.6 mph33.2 kmh - -
Humidity 63% 77% 45% 56%
Pressure 30.00 in1015.9 mb 30.42 in1030.1 mb 29.94 in1013.9 mb -
Hour Temp Dew Point Humidity Winds Wind Gusts Pressure Precip Precip Rate Daily Precip Total
12:22 PM 88.9°F31.6°C 74.8°F23.8°C 63% 2.2 mph W3.5 kmh W 3.2 mph5.1 kmh 30.00 in1015.9 mb 0.00 in0.0 mm 0.00 in0.0 mm 0.00 in0.0 mm
12:19 PM 88.9°F31.6°C 75.4°F24.1°C 64% 2.2 mph W3.5 kmh W 3.2 mph5.1 kmh 30.00 in1015.9 mb 0.00 in0.0 mm 0.00 in0.0 mm 0.00 in0.0 mm
12:14 PM 38.8°F3.8°C 19.8°F-6.8°C 46% 9.9 mph NNE15.9 kmh NNE 14.8 mph23.8 kmh 30.39 in1029.1 mb 0.00 in0.0 mm 0.00 in0.0 mm 0.00 in0.0 mm
12:09 PM 39.4°F4.1°C 20.3°F-6.5°C 46% 6.2 mph NNE10.0 kmh NNE 13.8 mph22.2 kmh 30.39 in1029.1 mb 0.00 in0.0 mm 0.00 in0.0 mm 0.00 in0.0 mm
12:04 PM 38.8°F3.8°C 20.3°F-6.5°C 47% 6.1 mph NE9.8 kmh NE 15.6 mph25.1 kmh 30.39 in1029.1 mb 0.00 in0.0 mm 0.00 in0.0 mm 0.00 in0.0 mm
11:59 AM 38.1°F3.4°C 19.1°F-7.2°C 46% 9.5 mph NNE15.3 kmh NNE 15.6 mph25.1 kmh 30.39 in1029.1 mb 0.00 in0.0 mm 0.00 in0.0 mm 0.00 in0.0 mm
11:54 AM 38.3°F3.5°C 19.9°F-6.7°C 47% 6.4 mph NNE10.3 kmh NNE 14.4 mph23.2 kmh 30.39 in1029.1 mb 0.00 in0.0 mm 0.00 in0.0 mm 0.00 in0.0 mm
11:49 AM 38.1°F3.4°C 19.7°F-6.8°C 47% 8.9 mph N14.3 kmh N 13.0 mph20.9 kmh 30.39 in1029.1 mb 0.00 in0.0 mm 0.00 in0.0 mm 0.00 in0.0 mm
11:44 AM 89.1°F31.7°C 75.5°F24.2°C 64% 2.0 mph NW3.2 kmh NW 3.2 mph5.1 kmh 30.00 in1015.9 mb 0.00 in0.0 mm 0.00 in0.0 mm 0.00 in0.0 mm
11:43 AM 37.4°F3.0°C 18.5°F-7.5°C 46% 6.9 mph N11.1 kmh N 12.0 mph19.3 kmh 30.39 in1029.1 mb 0.00 in0.0 mm 0.00 in0.0 mm 0.00 in0.0 mm
11:40 AM 89.1°F31.7°C 75.5°F24.2°C 64% 2.2 mph WNW3.5 kmh WNW 3.2 mph5.1 kmh 30.00 in1015.9 mb 0.00 in0.0 mm 0.00 in0.0 mm 0.00 in0.0 mm
11:38 AM 37.8°F3.2°C 19.4°F-7.0°C 47% 7.2 mph N11.6 kmh N 17.4 mph28.0 kmh 30.39 in1029.1 mb 0.00 in0.0 mm 0.00 in0.0 mm 0.00 in0.0 mm
11:33 AM 37.2°F2.9°C 19.4°F-7.0°C 48% 5.4 mph N8.7 kmh N 17.4 mph28.0 kmh 30.39 in1029.1 mb 0.00 in0.0 mm 0.00 in0.0 mm 0.00 in0.0 mm
11:28 AM 36.7°F2.6°C 19.0°F-7.2°C 48% 9.2 mph NE14.8 kmh NE 15.6 mph25.1 kmh 30.39 in1029.1 mb 0.00 in0.0 mm 0.00 in0.0 mm 0.00 in0.0 mm
11:20 AM 36.1°F2.3°C 18.4°F-7.6°C 48% 8.2 mph N13.2 kmh N 15.2 mph24.5 kmh 30.42 in1030.1 mb 0.00 in0.0 mm 0.00 in0.0 mm 0.00 in0.0 mm
11:15 AM 36.0°F2.2°C 18.9°F-7.3°C 50% 6.6 mph N10.6 kmh N 12.6 mph20.3 kmh 30.42 in1030.1 mb 0.00 in0.0 mm 0.00 in0.0 mm 0.00 in0.0 mm
11:10 AM 35.4°F1.9°C 17.8°F-7.9°C 48% 8.5 mph NNE13.7 kmh NNE 17.4 mph28.0 kmh 30.42 in1030.1 mb 0.00 in0.0 mm 0.00 in0.0 mm 0.00 in0.0 mm
11:05 AM 35.2°F1.8°C 18.1°F-7.7°C 50% 7.2 mph NNE11.6 kmh NNE 17.4 mph28.0 kmh 30.42 in1030.1 mb 0.00 in0.0 mm 0.00 in0.0 mm 0.00 in0.0 mm
11:03 AM 89.1°F31.7°C 75.0°F23.9°C 63% 2.5 mph W4.0 kmh W 3.2 mph5.1 kmh 30.00 in1015.9 mb 0.00 in0.0 mm 0.00 in0.0 mm 0.00 in0.0 mm
10:58 AM 35.1°F1.7°C 18.0°F-7.8°C 50% 7.5 mph NE12.1 kmh NE 16.2 mph26.1 kmh 30.42 in1030.1 mb 0.00 in0.0 mm 0.00 in0.0 mm 0.00 in0.0 mm
10:53 AM 34.7°F1.5°C 17.6°F-8.0°C 50% 9.4 mph N15.1 kmh N 14.4 mph23.2 kmh 30.42 in1030.1 mb 0.00 in0.0 mm 0.00 in0.0 mm 0.00 in0.0 mm
10:47 AM 34.9°F1.6°C 17.8°F-7.9°C 50% 8.7 mph NNE14.0 kmh NNE 14.4 mph23.2 kmh 30.42 in1030.1 mb 0.00 in0.0 mm 0.00 in0.0 mm 0.00 in0.0 mm
10:43 AM 34.5°F1.4°C 17.5°F-8.1°C 50% 9.0 mph NNE14.5 kmh NNE 15.6 mph25.1 kmh 30.42 in1030.1 mb 0.00 in0.0 mm 0.00 in0.0 mm 0.00 in0.0 mm
10:37 AM 34.5°F1.4°C 17.5°F-8.1°C 50% 10.2 mph N16.4 kmh N 15.6 mph25.1 kmh 30.39 in1029.1 mb 0.00 in0.0 mm 0.00 in0.0 mm 0.00 in0.0 mm
10:33 AM 34.7°F1.5°C 17.6°F-8.0°C 50% 8.1 mph NNE13.0 kmh NNE 15.2 mph24.5 kmh 30.39 in1029.1 mb 0.00 in0.0 mm 0.00 in0.0 mm 0.00 in0.0 mm
10:31 AM 89.2°F31.8°C 76.1°F24.5°C 65% 2.7 mph SW4.3 kmh SW 3.2 mph5.1 kmh 30.00 in1015.9 mb 0.00 in0.0 mm 0.00 in0.0 mm 0.00 in0.0 mm
10:27 AM 34.0°F1.1°C 17.0°F-8.3°C 50% 8.2 mph N13.2 kmh N 12.6 mph20.3 kmh 30.39 in1029.1 mb 0.00 in0.0 mm 0.00 in0.0 mm 0.00 in0.0 mm
10:22 AM 33.6°F0.9°C 16.6°F-8.6°C 50% 7.1 mph NNW11.4 kmh NNW 16.2 mph26.1 kmh 30.39 in1029.1 mb 0.00 in0.0 mm 0.00 in0.0 mm 0.00 in0.0 mm
10:16 AM 33.8°F1.0°C 16.8°F-8.4°C 50% 11.1 mph NNE17.9 kmh NNE 17.0 mph27.4 kmh 30.39 in1029.1 mb 0.00 in0.0 mm 0.00 in0.0 mm 0.00 in0.0 mm
10:11 AM 33.4°F0.8°C 16.4°F-8.7°C 50% 13.3 mph NNE21.4 kmh NNE 20.6 mph33.2 kmh 30.39 in1029.1 mb 0.00 in0.0 mm 0.00 in0.0 mm 0.00 in0.0 mm
10:06 AM 33.3°F0.7°C 16.9°F-8.4°C 51% 8.7 mph N14.0 kmh N 20.6 mph33.2 kmh 30.39 in1029.1 mb 0.00 in0.0 mm 0.00 in0.0 mm 0.00 in0.0 mm
10:01 AM 33.3°F0.7°C 16.9°F-8.4°C 51% 7.5 mph NNW12.1 kmh NNW 12.6 mph20.3 kmh 30.39 in1029.1 mb 0.00 in0.0 mm 0.00 in0.0 mm 0.00 in0.0 mm
09:56 AM 33.3°F0.7°C 16.9°F-8.4°C 51% 9.6 mph N15.4 kmh N 19.2 mph30.9 kmh 30.39 in1029.1 mb 0.00 in0.0 mm 0.00 in0.0 mm 0.00 in0.0 mm
09:51 AM 33.1°F0.6°C 16.7°F-8.5°C 51% 11.8 mph NNE19.0 kmh NNE 19.2 mph30.9 kmh 30.39 in1029.1 mb 0.00 in0.0 mm 0.00 in0.0 mm 0.00 in0.0 mm
09:48 AM 89.6°F32.0°C 76.5°F24.7°C 65% 2.7 mph SW4.3 kmh SW 3.2 mph5.1 kmh 30.00 in1015.9 mb 0.00 in0.0 mm 0.00 in0.0 mm 0.00 in0.0 mm
09:46 AM 33.1°F0.6°C 17.2°F-8.2°C 52% 10.5 mph N16.9 kmh N 13.0 mph20.9 kmh 30.39 in1029.1 mb 0.00 in0.0 mm 0.00 in0.0 mm 0.00 in0.0 mm
09:41 AM 32.7°F0.4°C 16.8°F-8.4°C 52% 8.7 mph NNW14.0 kmh NNW 13.0 mph20.9 kmh 30.39 in1029.1 mb 0.00 in0.0 mm 0.00 in0.0 mm 0.00 in0.0 mm
09:36 AM 32.4°F0.2°C 16.0°F-8.9°C 51% 10.2 mph N16.4 kmh N 15.2 mph24.5 kmh 30.39 in1029.1 mb 0.00 in0.0 mm 0.00 in0.0 mm 0.00 in0.0 mm
09:31 AM 32.2°F0.1°C 15.9°F-8.9°C 51% 11.3 mph N18.2 kmh N 15.2 mph24.5 kmh 30.39 in1029.1 mb 0.00 in0.0 mm 0.00 in0.0 mm 0.00 in0.0 mm
09:26 AM 32.2°F0.1°C 16.4°F-8.7°C 52% 8.1 mph N13.0 kmh N 17.4 mph28.0 kmh 30.39 in1029.1 mb 0.00 in0.0 mm 0.00 in0.0 mm 0.00 in0.0 mm
09:21 AM 32.0°F0.0°C 16.2°F-8.8°C 52% 12.5 mph NNE20.1 kmh NNE 17.4 mph28.0 kmh 30.39 in1029.1 mb 0.00 in0.0 mm 0.00 in0.0 mm 0.00 in0.0 mm
09:18 AM 89.6°F32.0°C 76.5°F24.7°C 65% 2.2 mph SSE3.5 kmh SSE 3.2 mph5.1 kmh 30.00 in1015.9 mb 0.00 in0.0 mm 0.00 in0.0 mm 0.00 in0.0 mm
09:17 AM 89.2°F31.8°C 76.1°F24.5°C 65% 3.2 mph NW5.1 kmh NW 3.2 mph5.1 kmh 30.00 in1015.9 mb 0.00 in0.0 mm 0.00 in0.0 mm 0.00 in0.0 mm
09:16 AM 31.8°F-0.1°C 16.0°F-8.9°C 52% 11.4 mph NNE18.3 kmh NNE 17.4 mph28.0 kmh 30.39 in1029.1 mb 0.00 in0.0 mm 0.00 in0.0 mm 0.00 in0.0 mm
09:11 AM 31.6°F-0.2°C 16.3°F-8.7°C 53% 6.6 mph N10.6 kmh N 11.2 mph18.0 kmh 30.39 in1029.1 mb 0.00 in0.0 mm 0.00 in0.0 mm 0.00 in0.0 mm
09:05 AM 31.1°F-0.5°C 15.8°F-9.0°C 53% 8.2 mph N13.2 kmh N 11.6 mph18.7 kmh 30.36 in1028.1 mb 0.00 in0.0 mm 0.00 in0.0 mm 0.00 in0.0 mm
09:00 AM 31.1°F-0.5°C 15.8°F-9.0°C 53% 7.2 mph N11.6 kmh N 11.6 mph18.7 kmh 30.36 in1028.1 mb 0.00 in0.0 mm 0.00 in0.0 mm 0.00 in0.0 mm
08:56 AM 89.4°F31.9°C 75.8°F24.3°C 64% 3.2 mph NW5.1 kmh NW 3.2 mph5.1 kmh 30.00 in1015.9 mb 0.00 in0.0 mm 0.00 in0.0 mm 0.00 in0.0 mm
08:55 AM 31.1°F-0.5°C 15.8°F-9.0°C 53% 5.8 mph NNW9.3 kmh NNW 8.0 mph12.9 kmh 30.36 in1028.1 mb 0.00 in0.0 mm 0.00 in0.0 mm 0.00 in0.0 mm
08:50 AM 30.9°F-0.6°C 15.7°F-9.1°C 53% 5.5 mph NNW8.9 kmh NNW 8.6 mph13.8 kmh 30.36 in1028.1 mb 0.00 in0.0 mm 0.00 in0.0 mm 0.00 in0.0 mm
08:46 AM 89.8°F32.1°C 76.2°F24.6°C 64% 3.2 mph NW5.1 kmh NW 3.2 mph5.1 kmh 30.00 in1015.9 mb 0.00 in0.0 mm 0.00 in0.0 mm 0.00 in0.0 mm
08:45 AM 30.9°F-0.6°C 15.7°F-9.1°C 53% 5.5 mph N8.9 kmh N 8.6 mph13.8 kmh 30.36 in1028.1 mb 0.00 in0.0 mm 0.00 in0.0 mm 0.00 in0.0 mm
08:40 AM 30.7°F-0.7°C 15.5°F-9.2°C 53% 4.6 mph 7.4 kmh 8.0 mph12.9 kmh 30.36 in1028.1 mb 0.00 in0.0 mm 0.00 in0.0 mm 0.00 in0.0 mm
08:34 AM 30.4°F-0.9°C 15.2°F-9.3°C 53% 5.3 mph NNW8.5 kmh NNW 7.2 mph11.6 kmh 30.36 in1028.1 mb 0.00 in0.0 mm 0.00 in0.0 mm 0.00 in0.0 mm
08:32 AM 90.0°F32.2°C 76.9°F24.9°C 65% Calm Calm -- 30.00 in1015.9 mb 0.00 in0.0 mm 0.00 in0.0 mm 0.00 in0.0 mm
08:29 AM 30.4°F-0.9°C 15.2°F-9.3°C 53% 5.9 mph N9.5 kmh N 8.0 mph12.9 kmh 30.36 in1028.1 mb 0.00 in0.0 mm 0.00 in0.0 mm 0.00 in0.0 mm
08:24 AM 30.2°F-1.0°C 15.5°F-9.2°C 54% 5.9 mph N9.5 kmh N 8.0 mph12.9 kmh 30.33 in1027.1 mb 0.00 in0.0 mm 0.00 in0.0 mm 0.00 in0.0 mm
08:22 AM 90.0°F32.2°C 76.4°F24.7°C 64% Calm Calm -- 30.00 in1015.9 mb 0.00 in0.0 mm 0.00 in0.0 mm 0.00 in0.0 mm
08:19 AM 29.8°F-1.2°C 15.1°F-9.4°C 54% 6.1 mph N9.8 kmh N 8.0 mph12.9 kmh 30.33 in1027.1 mb 0.00 in0.0 mm 0.00 in0.0 mm 0.00 in0.0 mm
08:17 AM 90.0°F32.2°C 76.4°F24.7°C 64% Calm Calm -- 30.00 in1015.9 mb 0.00 in0.0 mm 0.00 in0.0 mm 0.00 in0.0 mm
08:14 AM 29.7°F-1.3°C 15.0°F-9.4°C 54% 5.1 mph N8.2 kmh N 8.0 mph12.9 kmh 30.33 in1027.1 mb 0.00 in0.0 mm 0.00 in0.0 mm 0.00 in0.0 mm
08:13 AM 90.0°F32.2°C 77.4°F25.2°C 66% Calm Calm -- 30.00 in1015.9 mb 0.00 in0.0 mm 0.00 in0.0 mm 0.00 in0.0 mm
08:12 AM 89.8°F32.1°C 77.2°F25.1°C 66% Calm Calm -- 30.00 in1015.9 mb 0.00 in0.0 mm 0.00 in0.0 mm 0.00 in0.0 mm
08:09 AM 29.5°F-1.4°C 14.8°F-9.6°C 54% 5.9 mph N9.5 kmh N 8.0 mph12.9 kmh 30.33 in1027.1 mb 0.00 in0.0 mm 0.00 in0.0 mm 0.00 in0.0 mm
08:07 AM 89.6°F32.0°C 77.5°F25.3°C 67% Calm Calm -- 30.00 in1015.9 mb 0.00 in0.0 mm 0.00 in0.0 mm 0.00 in0.0 mm
08:04 AM 29.3°F-1.5°C 14.6°F-9.7°C 54% 6.2 mph NNW10.0 kmh NNW 8.0 mph12.9 kmh 30.33 in1027.1 mb 0.00 in0.0 mm 0.00 in0.0 mm 0.00 in0.0 mm
08:03 AM 89.4°F31.9°C 77.3°F25.2°C 67% Calm Calm -- 30.00 in1015.9 mb 0.00 in0.0 mm 0.00 in0.0 mm 0.00 in0.0 mm
08:02 AM 89.2°F31.8°C 77.1°F25.1°C 67% Calm Calm 5.0 mph8.0 kmh 30.00 in1015.9 mb 0.00 in0.0 mm 0.00 in0.0 mm 0.00 in0.0 mm
07:59 AM 29.1°F-1.6°C 14.5°F-9.7°C 54% 6.8 mph N10.9 kmh N 8.6 mph13.8 kmh 30.33 in1027.1 mb 0.00 in0.0 mm 0.00 in0.0 mm 0.00 in0.0 mm
07:58 AM 89.1°F31.7°C 77.0°F25.0°C 67% Calm Calm 5.0 mph8.0 kmh 30.00 in1015.9 mb 0.00 in0.0 mm 0.00 in0.0 mm 0.00 in0.0 mm
07:54 AM 28.9°F-1.7°C 14.3°F-9.8°C 54% 5.8 mph N9.3 kmh N 8.6 mph13.8 kmh 30.33 in1027.1 mb 0.00 in0.0 mm 0.00 in0.0 mm 0.00 in0.0 mm
07:49 AM 28.8°F-1.8°C 14.2°F-9.9°C 54% 5.8 mph NNW9.3 kmh NNW 8.6 mph13.8 kmh 30.33 in1027.1 mb 0.00 in0.0 mm 0.00 in0.0 mm 0.00 in0.0 mm
07:42 AM 28.6°F-1.9°C 14.0°F-10.0°C 54% 4.9 mph N7.9 kmh N 8.0 mph12.9 kmh 30.33 in1027.1 mb 0.00 in0.0 mm 0.00 in0.0 mm 0.00 in0.0 mm
07:38 AM 28.6°F-1.9°C 14.0°F-10.0°C 54% 6.1 mph N9.8 kmh N 8.0 mph12.9 kmh 30.33 in1027.1 mb 0.00 in0.0 mm 0.00 in0.0 mm 0.00 in0.0 mm
07:32 AM 28.4°F-2.0°C 13.8°F-10.1°C 54% 5.9 mph NNW9.5 kmh NNW 7.6 mph12.2 kmh 30.33 in1027.1 mb 0.00 in0.0 mm 0.00 in0.0 mm 0.00 in0.0 mm
07:27 AM 28.6°F-1.9°C 14.0°F-10.0°C 54% 5.3 mph NNW8.5 kmh NNW 6.8 mph10.9 kmh 30.33 in1027.1 mb 0.00 in0.0 mm 0.00 in0.0 mm 0.00 in0.0 mm
07:23 AM 28.6°F-1.9°C 13.5°F-10.3°C 53% 5.6 mph N9.0 kmh N 6.2 mph10.0 kmh 30.39 in1029.1 mb 0.00 in0.0 mm 0.00 in0.0 mm 0.00 in0.0 mm
07:17 AM 28.6°F-1.9°C 13.5°F-10.3°C 53% 4.8 mph N7.7 kmh N 7.6 mph12.2 kmh 30.39 in1029.1 mb 0.00 in0.0 mm 0.00 in0.0 mm 0.00 in0.0 mm
07:13 AM 28.6°F-1.9°C 13.5°F-10.3°C 53% 6.2 mph N10.0 kmh N 7.6 mph12.2 kmh 30.39 in1029.1 mb 0.00 in0.0 mm 0.00 in0.0 mm 0.00 in0.0 mm
07:07 AM 28.6°F-1.9°C 13.5°F-10.3°C 53% 5.2 mph N8.4 kmh N 7.6 mph12.2 kmh 30.36 in1028.1 mb 0.00 in0.0 mm 0.00 in0.0 mm 0.00 in0.0 mm
07:01 AM 28.8°F-1.8°C 13.7°F-10.2°C 53% 6.0 mph N9.7 kmh N 8.0 mph12.9 kmh 30.36 in1028.1 mb 0.00 in0.0 mm 0.00 in0.0 mm 0.00 in0.0 mm
06:56 AM 28.9°F-1.7°C 13.8°F-10.1°C 53% 6.1 mph N9.8 kmh N 8.0 mph12.9 kmh 30.36 in1028.1 mb 0.00 in0.0 mm 0.00 in0.0 mm 0.00 in0.0 mm
06:50 AM 29.1°F-1.6°C 14.0°F-10.0°C 53% 5.8 mph N9.3 kmh N 9.8 mph15.8 kmh 30.36 in1028.1 mb 0.00 in0.0 mm 0.00 in0.0 mm 0.00 in0.0 mm
06:45 AM 29.1°F-1.6°C 13.5°F-10.3°C 52% 7.3 mph N11.7 kmh N 9.8 mph15.8 kmh 30.36 in1028.1 mb 0.00 in0.0 mm 0.00 in0.0 mm 0.00 in0.0 mm
06:40 AM 29.1°F-1.6°C 14.0°F-10.0°C 53% 6.7 mph N10.8 kmh N 11.2 mph18.0 kmh 30.36 in1028.1 mb 0.00 in0.0 mm 0.00 in0.0 mm 0.00 in0.0 mm
06:35 AM 29.1°F-1.6°C 13.5°F-10.3°C 52% 6.7 mph N10.8 kmh N 11.2 mph18.0 kmh 30.36 in1028.1 mb 0.00 in0.0 mm 0.00 in0.0 mm 0.00 in0.0 mm
06:30 AM 29.1°F-1.6°C 13.5°F-10.3°C 52% 7.7 mph N12.4 kmh N 10.8 mph17.4 kmh 30.36 in1028.1 mb 0.00 in0.0 mm 0.00 in0.0 mm 0.00 in0.0 mm
06:25 AM 29.3°F-1.5°C 13.7°F-10.2°C 52% 6.7 mph N10.8 kmh N 11.6 mph18.7 kmh 30.36 in1028.1 mb 0.00 in0.0 mm 0.00 in0.0 mm 0.00 in0.0 mm
06:19 AM 29.3°F-1.5°C 13.7°F-10.2°C 52% 8.4 mph N13.5 kmh N 11.6 mph18.7 kmh 30.33 in1027.1 mb 0.00 in0.0 mm 0.00 in0.0 mm 0.00 in0.0 mm
06:14 AM 29.3°F-1.5°C 13.7°F-10.2°C 52% 5.9 mph N9.5 kmh N 10.8 mph17.4 kmh 30.33 in1027.1 mb 0.00 in0.0 mm 0.00 in0.0 mm 0.00 in0.0 mm
06:09 AM 29.3°F-1.5°C 13.7°F-10.2°C 52% 7.9 mph N12.7 kmh N 10.8 mph17.4 kmh 30.33 in1027.1 mb 0.00 in0.0 mm 0.00 in0.0 mm 0.00 in0.0 mm
06:04 AM 29.3°F-1.5°C 13.7°F-10.2°C 52% 5.9 mph N9.5 kmh N 10.8 mph17.4 kmh 30.33 in1027.1 mb 0.00 in0.0 mm 0.00 in0.0 mm 0.00 in0.0 mm
05:59 AM 29.3°F-1.5°C 13.7°F-10.2°C 52% 6.5 mph N10.5 kmh N 10.8 mph17.4 kmh 30.33 in1027.1 mb 0.00 in0.0 mm 0.00 in0.0 mm 0.00 in0.0 mm
05:54 AM 29.5°F-1.4°C 13.9°F-10.1°C 52% 7.2 mph N11.6 kmh N 8.6 mph13.8 kmh 30.33 in1027.1 mb 0.00 in0.0 mm 0.00 in0.0 mm 0.00 in0.0 mm
05:48 AM 29.5°F-1.4°C 13.9°F-10.1°C 52% 5.8 mph N9.3 kmh N 11.2 mph18.0 kmh 30.33 in1027.1 mb 0.00 in0.0 mm 0.00 in0.0 mm 0.00 in0.0 mm
05:43 AM 29.5°F-1.4°C 13.9°F-10.1°C 52% 5.9 mph N9.5 kmh N 11.2 mph18.0 kmh 30.33 in1027.1 mb 0.00 in0.0 mm 0.00 in0.0 mm 0.00 in0.0 mm
05:38 AM 29.5°F-1.4°C 13.9°F-10.1°C 52% 6.5 mph N10.5 kmh N 11.2 mph18.0 kmh 30.30 in1026.1 mb 0.00 in0.0 mm 0.00 in0.0 mm 0.00 in0.0 mm
05:33 AM 29.7°F-1.3°C 13.5°F-10.3°C 51% 7.3 mph N11.7 kmh N 11.2 mph18.0 kmh 30.30 in1026.1 mb 0.00 in0.0 mm 0.00 in0.0 mm 0.00 in0.0 mm
05:28 AM 29.7°F-1.3°C 13.5°F-10.3°C 51% 7.2 mph N11.6 kmh N 11.2 mph18.0 kmh 30.30 in1026.1 mb 0.00 in0.0 mm 0.00 in0.0 mm 0.00 in0.0 mm
05:23 AM 29.7°F-1.3°C 13.5°F-10.3°C 51% 7.0 mph N11.3 kmh N 11.2 mph18.0 kmh 30.27 in1025.1 mb 0.00 in0.0 mm 0.00 in0.0 mm 0.00 in0.0 mm
05:18 AM 29.5°F-1.4°C 13.4°F-10.3°C 51% 6.9 mph NNE11.1 kmh NNE 8.6 mph13.8 kmh 30.27 in1025.1 mb 0.00 in0.0 mm 0.00 in0.0 mm 0.00 in0.0 mm
05:13 AM 29.7°F-1.3°C 13.5°F-10.3°C 51% 5.3 mph N8.5 kmh N 9.4 mph15.1 kmh 30.27 in1025.1 mb 0.00 in0.0 mm 0.00 in0.0 mm 0.00 in0.0 mm
05:07 AM 29.7°F-1.3°C 13.5°F-10.3°C 51% 6.5 mph NNE10.5 kmh NNE 8.6 mph13.8 kmh 30.27 in1025.1 mb 0.00 in0.0 mm 0.00 in0.0 mm 0.00 in0.0 mm
05:02 AM 29.7°F-1.3°C 13.5°F-10.3°C 51% 4.8 mph NNE7.7 kmh NNE 8.0 mph12.9 kmh 30.27 in1025.1 mb 0.00 in0.0 mm 0.00 in0.0 mm 0.00 in0.0 mm
04:57 AM 29.8°F-1.2°C 13.6°F-10.2°C 51% 6.2 mph NNE10.0 kmh NNE 9.8 mph15.8 kmh 30.27 in1025.1 mb 0.00 in0.0 mm 0.00 in0.0 mm 0.00 in0.0 mm
04:52 AM 29.8°F-1.2°C 13.6°F-10.2°C 51% 6.6 mph NNE10.6 kmh NNE 9.8 mph15.8 kmh 30.30 in1026.1 mb 0.00 in0.0 mm 0.00 in0.0 mm 0.00 in0.0 mm
04:47 AM 30.0°F-1.1°C 13.8°F-10.1°C 51% 7.4 mph N11.9 kmh N 8.6 mph13.8 kmh 30.30 in1026.1 mb 0.00 in0.0 mm 0.00 in0.0 mm 0.00 in0.0 mm
04:42 AM 30.0°F-1.1°C 13.8°F-10.1°C 51% 7.0 mph N11.3 kmh N 8.0 mph12.9 kmh 30.30 in1026.1 mb 0.00 in0.0 mm 0.00 in0.0 mm 0.00 in0.0 mm
04:36 AM 30.0°F-1.1°C 13.8°F-10.1°C 51% 6.0 mph NNE9.7 kmh NNE 8.0 mph12.9 kmh 30.30 in1026.1 mb 0.00 in0.0 mm 0.00 in0.0 mm 0.00 in0.0 mm
04:31 AM 30.2°F-1.0°C 14.0°F-10.0°C 51% 5.8 mph NNE9.3 kmh NNE 8.0 mph12.9 kmh 30.30 in1026.1 mb 0.00 in0.0 mm 0.00 in0.0 mm 0.00 in0.0 mm
04:25 AM 30.2°F-1.0°C 14.0°F-10.0°C 51% 5.2 mph N8.4 kmh N 7.2 mph11.6 kmh 30.30 in1026.1 mb 0.00 in0.0 mm 0.00 in0.0 mm 0.00 in0.0 mm
04:20 AM 30.4°F-0.9°C 14.2°F-9.9°C 51% 5.1 mph NNE8.2 kmh NNE 7.6 mph12.2 kmh 30.30 in1026.1 mb 0.00 in0.0 mm 0.00 in0.0 mm 0.00 in0.0 mm
04:15 AM 30.4°F-0.9°C 14.2°F-9.9°C 51% 4.3 mph N6.9 kmh N 7.6 mph12.2 kmh 30.30 in1026.1 mb 0.00 in0.0 mm 0.00 in0.0 mm 0.00 in0.0 mm
04:10 AM 30.6°F-0.8°C 14.4°F-9.8°C 51% 4.9 mph N7.9 kmh N 7.6 mph12.2 kmh 30.30 in1026.1 mb 0.00 in0.0 mm 0.00 in0.0 mm 0.00 in0.0 mm
04:05 AM 30.4°F-0.9°C 14.2°F-9.9°C 51% 5.2 mph N8.4 kmh N 7.6 mph12.2 kmh 30.30 in1026.1 mb 0.00 in0.0 mm 0.00 in0.0 mm 0.00 in0.0 mm
04:00 AM 30.4°F-0.9°C 14.2°F-9.9°C 51% 4.9 mph N7.9 kmh N 8.0 mph12.9 kmh 30.30 in1026.1 mb 0.00 in0.0 mm 0.00 in0.0 mm 0.00 in0.0 mm
03:55 AM 30.4°F-0.9°C 14.2°F-9.9°C 51% 5.3 mph N8.5 kmh N 8.0 mph12.9 kmh 30.30 in1026.1 mb 0.00 in0.0 mm 0.00 in0.0 mm 0.00 in0.0 mm
03:50 AM 30.4°F-0.9°C 14.2°F-9.9°C 51% 4.5 mph N7.2 kmh N 7.2 mph11.6 kmh 30.30 in1026.1 mb 0.00 in0.0 mm 0.00 in0.0 mm 0.00 in0.0 mm
03:44 AM 30.4°F-0.9°C 14.2°F-9.9°C 51% 4.7 mph NNE7.6 kmh NNE 7.6 mph12.2 kmh 30.30 in1026.1 mb 0.00 in0.0 mm 0.00 in0.0 mm 0.00 in0.0 mm
03:39 AM 30.4°F-0.9°C 14.2°F-9.9°C 51% 4.1 mph N6.6 kmh N 6.2 mph10.0 kmh 30.30 in1026.1 mb 0.00 in0.0 mm 0.00 in0.0 mm 0.00 in0.0 mm
03:38 AM 88.9°F31.6°C 76.9°F24.9°C 67% Calm Calm 5.0 mph8.0 kmh 30.00 in1015.9 mb 0.00 in0.0 mm 0.00 in0.0 mm 0.00 in0.0 mm
03:35 AM 88.7°F31.5°C 77.2°F25.1°C 68% Calm Calm 5.0 mph8.0 kmh 30.00 in1015.9 mb 0.00 in0.0 mm 0.00 in0.0 mm 0.00 in0.0 mm
03:34 AM 88.7°F31.5°C 77.2°F25.1°C 68% Calm Calm 5.0 mph8.0 kmh 30.00 in1015.9 mb 0.00 in0.0 mm 0.00 in0.0 mm 0.00 in0.0 mm
03:33 AM 30.6°F-0.8°C 14.4°F-9.8°C 51% 4.0 mph NNE6.4 kmh NNE 5.0 mph8.0 kmh 30.30 in1026.1 mb 0.00 in0.0 mm 0.00 in0.0 mm 0.00 in0.0 mm
03:28 AM 30.6°F-0.8°C 13.9°F-10.1°C 50% 2.5 mph NNE4.0 kmh NNE 5.0 mph8.0 kmh 30.30 in1026.1 mb 0.00 in0.0 mm 0.00 in0.0 mm 0.00 in0.0 mm
03:27 AM 88.5°F31.4°C 77.0°F25.0°C 68% Calm Calm 5.0 mph8.0 kmh 30.00 in1015.9 mb 0.00 in0.0 mm 0.00 in0.0 mm 0.00 in0.0 mm
03:23 AM 30.7°F-0.7°C 13.9°F-10.1°C 50% 4.3 mph NNE6.9 kmh NNE 5.8 mph9.3 kmh 30.30 in1026.1 mb 0.00 in0.0 mm 0.00 in0.0 mm 0.00 in0.0 mm
03:18 AM 31.1°F-0.5°C 14.3°F-9.8°C 50% 3.4 mph NNE5.5 kmh NNE 5.8 mph9.3 kmh 30.30 in1026.1 mb 0.00 in0.0 mm 0.00 in0.0 mm 0.00 in0.0 mm
03:16 AM 88.2°F31.2°C 77.1°F25.1°C 69% Calm Calm 5.0 mph8.0 kmh 30.00 in1015.9 mb 0.00 in0.0 mm 0.00 in0.0 mm 0.00 in0.0 mm
03:13 AM 31.3°F-0.4°C 14.5°F-9.7°C 50% 3.7 mph NE6.0 kmh NE 7.2 mph11.6 kmh 30.30 in1026.1 mb 0.00 in0.0 mm 0.00 in0.0 mm 0.00 in0.0 mm
03:08 AM 31.3°F-0.4°C 14.5°F-9.7°C 50% 4.8 mph NNE7.7 kmh NNE 7.2 mph11.6 kmh 30.30 in1026.1 mb 0.00 in0.0 mm 0.00 in0.0 mm 0.00 in0.0 mm
03:07 AM 88.0°F31.1°C 76.5°F24.7°C 68% 5.0 mph SSW8.0 kmh SSW 5.0 mph8.0 kmh 30.00 in1015.9 mb 0.00 in0.0 mm 0.00 in0.0 mm 0.00 in0.0 mm
03:03 AM 31.5°F-0.3°C 14.7°F-9.6°C 50% 4.2 mph NNE6.8 kmh NNE 6.2 mph10.0 kmh 30.30 in1026.1 mb 0.00 in0.0 mm 0.00 in0.0 mm 0.00 in0.0 mm
03:02 AM 88.0°F31.1°C 77.0°F25.0°C 69% 4.1 mph S6.6 kmh S 5.0 mph8.0 kmh 30.00 in1015.9 mb 0.00 in0.0 mm 0.00 in0.0 mm 0.00 in0.0 mm
02:58 AM 31.6°F-0.2°C 14.8°F-9.6°C 50% 3.5 mph N5.6 kmh N 6.8 mph10.9 kmh 30.30 in1026.1 mb 0.00 in0.0 mm 0.00 in0.0 mm 0.00 in0.0 mm
02:52 AM 31.8°F-0.1°C 15.0°F-9.4°C 50% 5.1 mph N8.2 kmh N 6.8 mph10.9 kmh 30.27 in1025.1 mb 0.00 in0.0 mm 0.00 in0.0 mm 0.00 in0.0 mm
02:49 AM 88.3°F31.3°C 77.7°F25.4°C 70% 3.6 mph SSE5.8 kmh SSE 5.0 mph8.0 kmh 30.00 in1015.9 mb 0.00 in0.0 mm 0.00 in0.0 mm 0.00 in0.0 mm
02:47 AM 31.6°F-0.2°C 14.2°F-9.9°C 48% 2.8 mph NNE4.5 kmh NNE 5.8 mph9.3 kmh 30.27 in1025.1 mb 0.00 in0.0 mm 0.00 in0.0 mm 0.00 in0.0 mm
02:45 AM 88.3°F31.3°C 78.2°F25.7°C 72% 5.0 mph SSE8.0 kmh SSE 5.0 mph8.0 kmh 30.00 in1015.9 mb 0.00 in0.0 mm 0.00 in0.0 mm 0.00 in0.0 mm
02:42 AM 31.8°F-0.1°C 14.4°F-9.8°C 48% 3.2 mph N5.1 kmh N 5.8 mph9.3 kmh 30.27 in1025.1 mb 0.00 in0.0 mm 0.00 in0.0 mm 0.00 in0.0 mm
02:40 AM 88.3°F31.3°C 78.2°F25.7°C 72% Calm Calm 2.6 mph4.2 kmh 30.00 in1015.9 mb 0.00 in0.0 mm 0.00 in0.0 mm 0.00 in0.0 mm
02:37 AM 32.0°F0.0°C 14.6°F-9.7°C 48% 3.6 mph NE5.8 kmh NE 5.4 mph8.7 kmh 30.27 in1025.1 mb 0.00 in0.0 mm 0.00 in0.0 mm 0.00 in0.0 mm
02:36 AM 88.2°F31.2°C 78.1°F25.6°C 72% Calm Calm 2.6 mph4.2 kmh 30.00 in1015.9 mb 0.00 in0.0 mm 0.00 in0.0 mm 0.00 in0.0 mm
02:35 AM 88.2°F31.2°C 78.1°F25.6°C 72% Calm Calm 2.6 mph4.2 kmh 30.00 in1015.9 mb 0.00 in0.0 mm 0.00 in0.0 mm 0.00 in0.0 mm
02:32 AM 32.4°F0.2°C 15.0°F-9.4°C 48% 3.5 mph NE5.6 kmh NE 7.6 mph12.2 kmh 30.27 in1025.1 mb 0.00 in0.0 mm 0.00 in0.0 mm 0.00 in0.0 mm
02:28 AM 88.2°F31.2°C 78.1°F25.6°C 72% Calm Calm 2.6 mph4.2 kmh 30.00 in1015.9 mb 0.00 in0.0 mm 0.00 in0.0 mm 0.00 in0.0 mm
02:27 AM 32.5°F0.3°C 15.1°F-9.4°C 48% 3.9 mph NE6.3 kmh NE 7.6 mph12.2 kmh 30.27 in1025.1 mb 0.00 in0.0 mm 0.00 in0.0 mm 0.00 in0.0 mm
02:26 AM 88.0°F31.1°C 77.9°F25.5°C 72% 2.6 mph ESE4.2 kmh ESE 2.6 mph4.2 kmh 30.00 in1015.9 mb 0.00 in0.0 mm 0.00 in0.0 mm 0.00 in0.0 mm
02:24 AM 87.4°F30.8°C 78.2°F25.7°C 74% 2.6 mph ESE4.2 kmh ESE 2.6 mph4.2 kmh 30.00 in1015.9 mb 0.00 in0.0 mm 0.00 in0.0 mm 0.00 in0.0 mm
02:22 AM 32.5°F0.3°C 15.1°F-9.4°C 48% 5.3 mph NE8.5 kmh NE 8.6 mph13.8 kmh 30.27 in1025.1 mb 0.00 in0.0 mm 0.00 in0.0 mm 0.00 in0.0 mm
02:17 AM 32.7°F0.4°C 15.3°F-9.3°C 48% 4.6 mph NNE7.4 kmh NNE 8.6 mph13.8 kmh 30.27 in1025.1 mb 0.00 in0.0 mm 0.00 in0.0 mm 0.00 in0.0 mm
02:15 AM 87.3°F30.7°C 78.5°F25.8°C 75% 2.2 mph SE3.5 kmh SE 2.6 mph4.2 kmh 30.00 in1015.9 mb 0.00 in0.0 mm 0.00 in0.0 mm 0.00 in0.0 mm
02:14 AM 87.1°F30.6°C 77.9°F25.5°C 74% 2.2 mph SE3.5 kmh SE 2.6 mph4.2 kmh 30.00 in1015.9 mb 0.00 in0.0 mm 0.00 in0.0 mm 0.00 in0.0 mm
02:12 AM 87.1°F30.6°C 78.3°F25.7°C 75% 2.2 mph SE3.5 kmh SE 2.6 mph4.2 kmh 30.00 in1015.9 mb 0.00 in0.0 mm 0.00 in0.0 mm 0.00 in0.0 mm
02:11 AM 32.9°F0.5°C 15.5°F-9.2°C 48% 5.7 mph N9.2 kmh N 11.6 mph18.7 kmh 30.27 in1025.1 mb 0.00 in0.0 mm 0.00 in0.0 mm 0.00 in0.0 mm
02:09 AM 86.9°F30.5°C 78.1°F25.6°C 75% 2.0 mph ESE3.2 kmh ESE 2.2 mph3.5 kmh 29.97 in1014.9 mb 0.00 in0.0 mm 0.00 in0.0 mm 0.00 in0.0 mm
02:08 AM 86.9°F30.5°C 78.1°F25.6°C 75% 2.2 mph ESE3.5 kmh ESE 2.2 mph3.5 kmh 29.97 in1014.9 mb 0.00 in0.0 mm 0.00 in0.0 mm 0.00 in0.0 mm
02:07 AM 86.5°F30.3°C 77.8°F25.4°C 75% Calm Calm 1.8 mph2.9 kmh 29.97 in1014.9 mb 0.00 in0.0 mm 0.00 in0.0 mm 0.00 in0.0 mm
02:06 AM 33.1°F0.6°C 15.6°F-9.1°C 48% 7.1 mph N11.4 kmh N 11.6 mph18.7 kmh 30.27 in1025.1 mb 0.00 in0.0 mm 0.00 in0.0 mm 0.00 in0.0 mm
02:04 AM 86.4°F30.2°C 78.1°F25.6°C 76% Calm Calm 1.8 mph2.9 kmh 29.97 in1014.9 mb 0.00 in0.0 mm 0.00 in0.0 mm 0.00 in0.0 mm
01:59 AM 32.9°F0.5°C 15.5°F-9.2°C 48% 5.9 mph N9.5 kmh N 7.6 mph12.2 kmh 30.27 in1025.1 mb 0.00 in0.0 mm 0.00 in0.0 mm 0.00 in0.0 mm
01:58 AM 86.2°F30.1°C 77.5°F25.3°C 75% 1.8 mph ENE2.9 kmh ENE 1.8 mph2.9 kmh 29.97 in1014.9 mb 0.00 in0.0 mm 0.00 in0.0 mm 0.00 in0.0 mm
01:55 AM 32.9°F0.5°C 15.5°F-9.2°C 48% 6.5 mph N10.5 kmh N 8.6 mph13.8 kmh 30.27 in1025.1 mb 0.00 in0.0 mm 0.00 in0.0 mm 0.00 in0.0 mm
01:49 AM 86.0°F30.0°C 77.7°F25.4°C 76% 1.8 mph ENE2.9 kmh ENE 2.2 mph3.5 kmh 29.97 in1014.9 mb 0.00 in0.0 mm 0.00 in0.0 mm 0.00 in0.0 mm
01:45 AM 85.6°F29.8°C 77.7°F25.4°C 77% 1.8 mph ENE2.9 kmh ENE 4.4 mph7.1 kmh 29.97 in1014.9 mb 0.00 in0.0 mm 0.00 in0.0 mm 0.00 in0.0 mm
01:44 AM 32.5°F0.3°C 15.1°F-9.4°C 48% 4.8 mph N7.7 kmh N 6.2 mph10.0 kmh 30.27 in1025.1 mb 0.00 in0.0 mm 0.00 in0.0 mm 0.00 in0.0 mm
01:40 AM 32.2°F0.1°C 15.3°F-9.3°C 50% 4.3 mph NNE6.9 kmh NNE 6.2 mph10.0 kmh 30.27 in1025.1 mb 0.00 in0.0 mm 0.00 in0.0 mm 0.00 in0.0 mm
01:38 AM 84.9°F29.4°C 76.6°F24.8°C 76% Calm Calm 4.4 mph7.1 kmh 29.97 in1014.9 mb 0.00 in0.0 mm 0.00 in0.0 mm 0.00 in0.0 mm
01:35 AM 32.2°F0.1°C 14.8°F-9.6°C 48% Calm Calm -- 30.27 in1025.1 mb 0.00 in0.0 mm 0.00 in0.0 mm 0.00 in0.0 mm
01:27 AM 32.5°F0.3°C 15.1°F-9.4°C 48% Calm Calm 4.4 mph7.1 kmh 30.27 in1025.1 mb 0.00 in0.0 mm 0.00 in0.0 mm 0.00 in0.0 mm
01:22 AM 32.7°F0.4°C 15.3°F-9.3°C 48% 2.8 mph NNE4.5 kmh NNE 4.4 mph7.1 kmh 30.27 in1025.1 mb 0.00 in0.0 mm 0.00 in0.0 mm 0.00 in0.0 mm
01:17 AM 33.1°F0.6°C 15.6°F-9.1°C 48% Calm Calm 2.6 mph4.2 kmh 30.27 in1025.1 mb 0.00 in0.0 mm 0.00 in0.0 mm 0.00 in0.0 mm
01:12 AM 33.4°F0.8°C 15.9°F-8.9°C 48% 2.5 mph NNE4.0 kmh NNE 4.0 mph6.4 kmh 30.27 in1025.1 mb 0.00 in0.0 mm 0.00 in0.0 mm 0.00 in0.0 mm
01:06 AM 33.6°F0.9°C 16.1°F-8.8°C 48% 1.8 mph 2.9 kmh 5.4 mph8.7 kmh 30.27 in1025.1 mb 0.00 in0.0 mm 0.00 in0.0 mm 0.00 in0.0 mm
01:01 AM 33.8°F1.0°C 15.7°F-9.1°C 47% 3.0 mph N4.8 kmh N 5.4 mph8.7 kmh 30.27 in1025.1 mb 0.00 in0.0 mm 0.00 in0.0 mm 0.00 in0.0 mm
12:56 AM 34.0°F1.1°C 15.9°F-8.9°C 47% 3.9 mph NW6.3 kmh NW 5.8 mph9.3 kmh 30.27 in1025.1 mb 0.00 in0.0 mm 0.00 in0.0 mm 0.00 in0.0 mm
12:51 AM 34.2°F1.2°C 16.1°F-8.8°C 47% 4.9 mph NW7.9 kmh NW 6.2 mph10.0 kmh 30.27 in1025.1 mb 0.00 in0.0 mm 0.00 in0.0 mm 0.00 in0.0 mm
12:46 AM 34.3°F1.3°C 16.2°F-8.8°C 47% 5.4 mph NNW8.7 kmh NNW 6.2 mph10.0 kmh 30.27 in1025.1 mb 0.00 in0.0 mm 0.00 in0.0 mm 0.00 in0.0 mm
12:41 AM 34.5°F1.4°C 16.4°F-8.7°C 47% 5.3 mph N8.5 kmh N 5.8 mph9.3 kmh 30.27 in1025.1 mb 0.00 in0.0 mm 0.00 in0.0 mm 0.00 in0.0 mm
12:35 AM 34.5°F1.4°C 16.4°F-8.7°C 47% 4.4 mph NNE7.1 kmh NNE 5.8 mph9.3 kmh 30.27 in1025.1 mb 0.00 in0.0 mm 0.00 in0.0 mm 0.00 in0.0 mm
12:30 AM 34.7°F1.5°C 16.6°F-8.6°C 47% 4.4 mph N7.1 kmh N 5.0 mph8.0 kmh 30.27 in1025.1 mb 0.00 in0.0 mm 0.00 in0.0 mm 0.00 in0.0 mm
12:24 AM 34.5°F1.4°C 16.4°F-8.7°C 47% 3.3 mph NNE5.3 kmh NNE 5.4 mph8.7 kmh 30.27 in1025.1 mb 0.00 in0.0 mm 0.00 in0.0 mm 0.00 in0.0 mm
12:19 AM 34.5°F1.4°C 16.4°F-8.7°C 47% 3.9 mph N6.3 kmh N 5.4 mph8.7 kmh 30.27 in1025.1 mb 0.00 in0.0 mm 0.00 in0.0 mm 0.00 in0.0 mm
12:13 AM 34.7°F1.5°C 16.0°F-8.9°C 46% 2.8 mph NNE4.5 kmh NNE 4.0 mph6.4 kmh 30.27 in1025.1 mb 0.00 in0.0 mm 0.00 in0.0 mm 0.00 in0.0 mm
12:08 AM 34.9°F1.6°C 16.2°F-8.8°C 46% Calm Calm 4.0 mph6.4 kmh 30.27 in1025.1 mb 0.00 in0.0 mm 0.00 in0.0 mm 0.00 in0.0 mm
12:03 AM 35.1°F1.7°C 16.4°F-8.7°C 46% 2.7 mph 4.3 kmh 5.8 mph9.3 kmh 30.27 in1025.1 mb 0.00 in0.0 mm 0.00 in0.0 mm 0.00 in0.0 mm